Minchinhampton, United Kingdom
Current Conditions -  °F | °C
As of 5:20 PM on Friday 19 Dec 2014 (Local Time) from EGBJ Reporting Station
Few Clouds Few Clouds  
Wind Chill:   Ceiling: Unl
Heat Index:   Visibility: 6mi
Dew Point:   Wind: 3mph
Humidity: 71%   Direction: 170°S
Pressure: 30.15"   Gusts: NA
Location:  51.71°N, 2.19°W
Report Text: EGBJ 191720Z 17003KT 9999 FEW030 07/02 Q1021
Loading
Personal Weather Stations






























Interactive Weather Map New forecast layout! Learn more

10-Day Weather Forecast

Advertisements
Track Severe Weather on mobile